createdAt,value
2023-04-22T00:00:05.758Z,51.33
2023-04-22T00:01:52.480Z,51.40
2023-04-22T00:03:27.147Z,51.67
2023-04-22T00:05:01.436Z,51.73
2023-04-22T00:06:23.376Z,51.46
2023-04-22T00:07:45.149Z,51.49
2023-04-22T00:09:14.461Z,51.46
2023-04-22T00:10:38.627Z,51.54
2023-04-22T00:12:00.046Z,51.38
2023-04-22T00:13:30.032Z,50.84
2023-04-22T00:15:03.529Z,50.62
2023-04-22T00:16:49.103Z,50.74
2023-04-22T00:18:34.377Z,50.66
2023-04-22T00:20:00.596Z,50.65
2023-04-22T00:21:34.729Z,50.81
2023-04-22T00:23:07.902Z,50.83
2023-04-22T00:24:43.453Z,50.81
2023-04-22T00:26:12.721Z,51.29
2023-04-22T00:27:45.870Z,51.36
2023-04-22T00:29:40.037Z,51.18
2023-04-22T00:31:33.789Z,51.05
2023-04-22T00:33:14.505Z,51.48
2023-04-22T00:34:59.453Z,51.28
2023-04-22T00:36:21.643Z,51.29
2023-04-22T00:38:06.651Z,51.24
2023-04-22T00:39:42.450Z,50.98
2023-04-22T00:41:19.125Z,50.77
2023-04-22T00:42:52.160Z,50.86
2023-04-22T00:44:15.129Z,50.73
2023-04-22T00:45:46.346Z,50.34
2023-04-22T00:47:27.500Z,50.38
2023-04-22T00:49:12.955Z,49.85
2023-04-22T00:50:57.612Z,50.20
2023-04-22T00:52:33.379Z,50.24
2023-04-22T00:54:04.657Z,50.14
2023-04-22T00:55:27.115Z,49.97
2023-04-22T00:57:07.891Z,50.01
2023-04-22T00:58:52.779Z,49.92
2023-04-22T01:00:29.883Z,50.08
2023-04-22T01:01:51.455Z,50.01
2023-04-22T01:03:25.437Z,50.48
2023-04-22T01:04:54.477Z,50.33
2023-04-22T01:06:30.476Z,50.65
2023-04-22T01:08:03.611Z,50.70
2023-04-22T01:09:48.962Z,51.08
2023-04-22T01:11:13.033Z,50.91
2023-04-22T01:12:45.980Z,51.10
2023-04-22T01:14:30.898Z,51.05
2023-04-22T01:16:06.315Z,51.94
2023-04-22T01:17:50.949Z,51.58
2023-04-22T01:19:15.278Z,51.44
2023-04-22T01:20:59.852Z,51.52
2023-04-22T01:22:45.294Z,51.22
2023-04-22T01:24:26.544Z,51.00
2023-04-22T01:25:55.959Z,51.24
2023-04-22T01:27:20.588Z,51.63
2023-04-22T01:29:00.972Z,52.40
2023-04-22T01:30:34.586Z,52.79
2023-04-22T01:32:19.964Z,52.57
2023-04-22T01:33:55.992Z,53.17
2023-04-22T01:35:41.862Z,53.70
2023-04-22T01:37:04.093Z,54.03
2023-04-22T01:38:46.231Z,53.69
2023-04-22T01:40:19.916Z,54.23
2023-04-22T01:42:04.481Z,54.51
2023-04-22T01:43:39.954Z,54.95
2023-04-22T01:45:33.963Z,55.07
2023-04-22T01:47:08.217Z,55.01
2023-04-22T01:49:02.515Z,54.54
2023-04-22T01:50:24.812Z,54.46
2023-04-22T01:52:09.933Z,55.15
2023-04-22T01:53:54.859Z,55.15
2023-04-22T01:55:43.085Z,55.05
2023-04-22T01:57:19.360Z,55.26
2023-04-22T01:58:54.892Z,55.55
2023-04-22T02:00:19.569Z,55.86
2023-04-22T02:02:03.567Z,55.52
2023-04-22T02:03:25.920Z,55.83
2023-04-22T02:04:51.537Z,55.82
2023-04-22T02:06:25.371Z,55.95
2023-04-22T02:08:10.166Z,55.66
2023-04-22T02:10:03.312Z,56.31
2023-04-22T02:11:48.070Z,56.96
2023-04-22T02:13:30.557Z,56.68
2023-04-22T02:15:15.636Z,57.06
2023-04-22T02:17:00.780Z,57.51
2023-04-22T02:18:34.172Z,57.79
2023-04-22T02:19:55.553Z,57.67
2023-04-22T02:21:40.867Z,58.23
2023-04-22T02:23:14.026Z,57.97
2023-04-22T02:24:45.312Z,57.83
2023-04-22T02:26:30.474Z,57.99
2023-04-22T02:28:03.791Z,58.00
2023-04-22T02:29:46.520Z,58.47
2023-04-22T02:31:16.261Z,58.27
2023-04-22T02:32:40.063Z,58.62
2023-04-22T02:34:16.347Z,58.58
2023-04-22T02:35:40.502Z,58.78
2023-04-22T02:37:21.720Z,58.87
2023-04-22T02:38:57.136Z,58.95
2023-04-22T02:40:39.966Z,58.83
2023-04-22T02:42:06.060Z,58.78
2023-04-22T02:43:51.394Z,59.03
2023-04-22T02:45:25.272Z,59.43
2023-04-22T02:47:09.950Z,59.49
2023-04-22T02:48:55.055Z,59.11
2023-04-22T02:50:49.586Z,59.05
2023-04-22T02:52:35.358Z,59.25
2023-04-22T02:54:10.607Z,59.30
2023-04-22T02:55:55.697Z,59.35
2023-04-22T02:57:44.868Z,59.27
2023-04-22T02:59:39.886Z,59.04
2023-04-22T03:01:27.873Z,59.06
2023-04-22T03:03:13.607Z,59.18
2023-04-22T03:04:49.308Z,58.93
2023-04-22T03:06:33.226Z,59.09
2023-04-22T03:08:08.746Z,58.66
2023-04-22T03:09:53.584Z,58.58
2023-04-22T03:11:40.816Z,58.39
2023-04-22T03:13:14.083Z,58.79
2023-04-22T03:14:56.349Z,58.45
2023-04-22T03:16:44.705Z,58.73
2023-04-22T03:18:23.550Z,58.35
2023-04-22T03:19:56.865Z,58.46
2023-04-22T03:21:30.928Z,58.68
2023-04-22T03:22:52.646Z,58.54
2023-04-22T03:24:38.180Z,58.48
2023-04-22T03:26:14.325Z,58.48
2023-04-22T03:27:38.007Z,58.69
2023-04-22T03:29:14.017Z,58.45
2023-04-22T03:30:47.434Z,58.38
2023-04-22T03:32:31.522Z,58.17
2023-04-22T03:34:20.970Z,58.06
2023-04-22T03:36:01.703Z,58.18
2023-04-22T03:37:52.569Z,57.50
2023-04-22T03:39:51.555Z,57.74
2023-04-22T03:41:28.239Z,57.54
2023-04-22T03:43:04.013Z,57.55
2023-04-22T03:44:41.007Z,57.79
2023-04-22T03:46:29.891Z,57.65
2023-04-22T03:48:29.589Z,57.55
2023-04-22T03:50:11.716Z,57.31
2023-04-22T03:51:33.509Z,57.61
2023-04-22T03:53:15.301Z,57.81
2023-04-22T03:55:00.351Z,57.87
2023-04-22T03:56:45.071Z,57.75
2023-04-22T03:58:26.458Z,58.21
2023-04-22T04:00:01.975Z,58.27
2023-04-22T04:01:47.629Z,58.25
2023-04-22T04:03:33.460Z,58.27
2023-04-22T04:05:19.368Z,58.31
2023-04-22T04:06:56.407Z,57.87
2023-04-22T04:08:41.945Z,57.95
2023-04-22T04:10:18.131Z,57.25
2023-04-22T04:12:01.607Z,57.26
2023-04-22T04:13:37.403Z,57.17
2023-04-22T04:15:52.756Z,56.93
2023-04-22T04:17:34.661Z,56.62
2023-04-22T04:19:07.861Z,56.30
2023-04-22T04:21:03.605Z,56.22
2023-04-22T04:22:58.535Z,55.80
2023-04-22T04:24:52.131Z,55.49
2023-04-22T04:26:42.341Z,55.26
2023-04-22T04:28:31.759Z,55.03
2023-04-22T04:30:16.726Z,54.85
2023-04-22T04:32:02.524Z,54.41
2023-04-22T04:33:38.076Z,54.60
2023-04-22T04:35:12.291Z,54.42
2023-04-22T04:36:58.083Z,54.43
2023-04-22T04:38:32.230Z,54.35
2023-04-22T04:40:16.989Z,53.90
2023-04-22T04:42:06.910Z,53.97
2023-04-22T04:43:54.743Z,53.88
2023-04-22T04:45:27.337Z,53.63
2023-04-22T04:47:10.126Z,53.75
2023-04-22T04:48:55.628Z,53.23
2023-04-22T04:50:36.850Z,53.17
2023-04-22T04:52:11.905Z,52.64
2023-04-22T04:53:45.465Z,52.44
2023-04-22T04:55:19.534Z,52.68
2023-04-22T04:57:04.434Z,52.41
2023-04-22T04:58:40.479Z,52.03
2023-04-22T05:00:30.462Z,51.85
2023-04-22T05:02:03.425Z,51.39
2023-04-22T05:03:25.958Z,51.01
2023-04-22T05:04:59.295Z,50.95
2023-04-22T05:06:26.212Z,50.93
2023-04-22T05:08:03.745Z,51.09
2023-04-22T05:09:46.722Z,51.03
2023-04-22T05:11:08.310Z,50.95
2023-04-22T05:12:34.791Z,51.06
2023-04-22T05:14:08.847Z,51.21
2023-04-22T05:15:55.676Z,51.00
2023-04-22T05:17:41.038Z,50.57
2023-04-22T05:19:05.277Z,49.89
2023-04-22T05:20:41.644Z,49.62
2023-04-22T05:22:18.145Z,48.68
2023-04-22T05:24:02.726Z,48.48
2023-04-22T05:25:27.425Z,48.42
2023-04-22T05:26:53.124Z,48.44
2023-04-22T05:28:24.964Z,48.54
2023-04-22T05:30:00.412Z,48.74
2023-04-22T05:31:38.486Z,48.27
2023-04-22T05:33:11.991Z,48.55
2023-04-22T05:34:54.026Z,48.51
2023-04-22T05:36:31.610Z,48.18
2023-04-22T05:38:16.196Z,48.18
2023-04-22T05:39:46.332Z,47.29
2023-04-22T05:41:18.439Z,47.70
2023-04-22T05:42:57.762Z,47.35
2023-04-22T05:44:40.064Z,47.09
2023-04-22T05:46:09.036Z,46.47
2023-04-22T05:47:50.104Z,45.40
2023-04-22T05:49:14.848Z,44.79
2023-04-22T05:51:03.057Z,44.37
2023-04-22T05:52:53.424Z,44.18
2023-04-22T05:54:39.041Z,43.57
2023-04-22T05:56:24.175Z,43.37
2023-04-22T05:57:53.409Z,43.40
2023-04-22T06:00:11.101Z,42.13
2023-04-22T06:02:00.228Z,42.01
2023-04-22T06:03:25.138Z,41.49
2023-04-22T06:05:10.490Z,41.24
2023-04-22T06:06:55.797Z,40.54
2023-04-22T06:08:20.310Z,40.95
2023-04-22T06:10:02.157Z,41.31
2023-04-22T06:11:28.842Z,41.51
2023-04-22T06:13:13.684Z,41.44
2023-04-22T06:14:37.651Z,42.13
2023-04-22T06:17:55.606Z,40.75
2023-04-22T06:19:24.787Z,40.84
2023-04-22T06:21:18.552Z,40.57
2023-04-22T06:22:54.360Z,39.78
2023-04-22T06:24:30.109Z,39.57
2023-04-22T06:26:03.157Z,39.84
2023-04-22T06:27:34.906Z,40.36
2023-04-22T06:29:08.339Z,40.97
2023-04-22T06:30:45.542Z,41.50
2023-04-22T06:32:19.414Z,39.88
2023-04-22T06:33:59.511Z,39.72
2023-04-22T06:35:44.814Z,40.52
2023-04-22T06:37:38.773Z,39.49
2023-04-22T06:41:45.507Z,38.44
2023-04-22T06:43:30.492Z,38.82
2023-04-22T06:45:15.538Z,38.48
2023-04-22T06:47:28.191Z,37.70
2023-04-22T06:49:17.549Z,37.90
2023-04-22T06:51:07.440Z,37.87
2023-04-22T06:52:29.755Z,38.49
2023-04-22T06:54:15.737Z,37.19
2023-04-22T06:55:55.943Z,37.27
2023-04-22T06:57:29.756Z,37.75
2023-04-22T06:59:00.821Z,37.92
2023-04-22T07:00:23.797Z,37.19
2023-04-22T07:02:08.691Z,37.38
2023-04-22T07:03:45.691Z,37.68
2023-04-22T07:05:40.437Z,37.31
2023-04-22T07:07:06.611Z,36.81
2023-04-22T07:08:35.867Z,36.72
2023-04-22T07:10:29.422Z,37.08
2023-04-22T07:12:29.344Z,37.02
2023-04-22T07:14:14.212Z,36.76
2023-04-22T07:15:59.182Z,36.18
2023-04-22T07:17:45.053Z,36.22
2023-04-22T07:19:38.643Z,35.52
2023-04-22T07:21:02.938Z,35.90
2023-04-22T07:22:43.337Z,35.83
2023-04-22T07:24:04.800Z,36.27
2023-04-22T07:25:39.859Z,36.97
2023-04-22T07:27:02.404Z,36.42
2023-04-22T07:28:55.356Z,35.52
2023-04-22T07:30:29.112Z,34.60
2023-04-22T07:32:09.860Z,34.55
2023-04-22T07:33:50.473Z,35.41
2023-04-22T07:35:44.233Z,35.07
2023-04-22T07:37:37.585Z,34.67
2023-04-22T07:39:31.092Z,35.05
2023-04-22T07:40:54.941Z,34.88
2023-04-22T07:42:48.398Z,34.38
2023-04-22T07:44:22.253Z,33.88
2023-04-22T07:45:53.197Z,34.19
2023-04-22T07:47:34.478Z,34.84
2023-04-22T07:49:15.591Z,34.97
2023-04-22T07:50:44.701Z,33.70
2023-04-22T07:52:38.910Z,34.34
2023-04-22T07:54:12.449Z,34.47
2023-04-22T07:55:57.409Z,33.42
2023-04-22T07:57:45.593Z,33.31
2023-04-22T07:59:30.683Z,34.75
2023-04-22T08:01:03.956Z,33.42
2023-04-22T08:02:56.158Z,33.66
2023-04-22T08:04:50.681Z,33.00
2023-04-22T08:06:26.596Z,33.84
2023-04-22T08:08:11.481Z,33.29
2023-04-22T08:09:56.482Z,34.05
2023-04-22T08:11:44.976Z,32.45
2023-04-22T08:13:27.021Z,32.65
2023-04-22T08:15:02.755Z,32.47
2023-04-22T08:16:48.139Z,31.83
2023-04-22T08:18:22.009Z,31.74
2023-04-22T08:19:57.471Z,31.06
2023-04-22T08:21:31.784Z,31.00
2023-04-22T08:22:57.212Z,31.66
2023-04-22T08:24:42.321Z,31.16
2023-04-22T08:26:03.972Z,31.82
2023-04-22T08:27:40.265Z,31.95
2023-04-22T08:29:14.025Z,32.02
2023-04-22T08:30:47.546Z,31.72
2023-04-22T08:32:28.502Z,31.52
2023-04-22T08:34:01.431Z,32.29
2023-04-22T08:35:46.541Z,32.38
2023-04-22T08:37:15.684Z,33.12
2023-04-22T08:38:50.104Z,31.17
2023-04-22T08:40:35.426Z,30.52
2023-04-22T08:42:10.460Z,31.45
2023-04-22T08:43:54.875Z,31.82
2023-04-22T08:45:40.825Z,32.61
2023-04-22T08:47:34.266Z,33.13
2023-04-22T08:49:18.966Z,33.37
2023-04-22T08:51:03.441Z,31.40
2023-04-22T08:52:48.516Z,30.48
2023-04-22T08:54:24.407Z,31.86
2023-04-22T08:56:09.293Z,30.73
2023-04-22T08:57:54.520Z,31.12
2023-04-22T08:59:19.134Z,30.26
2023-04-22T09:01:04.069Z,29.88
2023-04-22T09:02:58.673Z,30.40
2023-04-22T09:04:44.057Z,31.66
2023-04-22T09:06:27.603Z,32.23
2023-04-22T09:08:12.536Z,32.05
2023-04-22T09:09:57.365Z,32.08
2023-04-22T09:11:38.240Z,33.02
2023-04-22T09:13:13.921Z,32.33
2023-04-22T09:14:49.277Z,33.47
2023-04-22T09:16:15.785Z,33.22
2023-04-22T09:18:00.615Z,31.72
2023-04-22T09:19:34.343Z,30.18
2023-04-22T09:21:07.525Z,29.90
2023-04-22T09:22:37.441Z,31.03
2023-04-22T09:23:59.448Z,32.57
2023-04-22T09:25:33.296Z,32.14
2023-04-22T09:27:06.072Z,31.46
2023-04-22T09:28:30.336Z,32.16
2023-04-22T09:30:05.913Z,33.39
2023-04-22T09:31:41.322Z,31.64
2023-04-22T09:33:30.541Z,30.73
2023-04-22T09:34:54.631Z,30.35
2023-04-22T09:36:44.720Z,30.27
2023-04-22T09:38:29.947Z,33.00
2023-04-22T09:39:54.538Z,31.62
2023-04-22T09:41:27.938Z,31.83
2023-04-22T09:42:49.675Z,32.86
2023-04-22T09:44:25.635Z,31.99
2023-04-22T09:45:58.744Z,31.49
2023-04-22T09:47:26.542Z,30.73
2023-04-22T09:49:11.145Z,32.57
2023-04-22T09:50:40.452Z,30.91
2023-04-22T09:52:21.477Z,31.02
2023-04-22T09:54:06.170Z,31.61
2023-04-22T09:55:30.676Z,30.75
2023-04-22T09:57:19.208Z,32.31
2023-04-22T09:59:04.161Z,31.82
2023-04-22T10:00:57.626Z,32.89
2023-04-22T10:02:51.199Z,32.16
2023-04-22T10:04:15.911Z,32.29
2023-04-22T10:05:52.719Z,31.15
2023-04-22T10:07:31.254Z,31.46
2023-04-22T10:09:12.432Z,32.12
2023-04-22T10:10:48.604Z,32.32
2023-04-22T10:12:43.546Z,30.44
2023-04-22T10:14:10.378Z,30.16
2023-04-22T10:15:39.963Z,30.71
2023-04-22T10:17:18.570Z,31.18
2023-04-22T10:18:52.350Z,31.09
2023-04-22T10:20:38.374Z,33.38
2023-04-22T10:22:14.225Z,33.37
2023-04-22T10:23:49.598Z,31.00
2023-04-22T10:25:25.525Z,29.40
2023-04-22T10:27:10.748Z,30.25
2023-04-22T10:28:46.134Z,29.99
2023-04-22T10:30:22.650Z,32.10
2023-04-22T10:32:10.627Z,31.77
2023-04-22T10:33:35.075Z,31.18
2023-04-22T10:35:19.977Z,30.22
2023-04-22T10:37:05.097Z,32.04
2023-04-22T10:38:59.554Z,29.71
2023-04-22T10:40:44.650Z,29.50
2023-04-22T10:42:19.507Z,29.39
2023-04-22T10:44:04.472Z,31.28
2023-04-22T10:45:48.960Z,30.10
2023-04-22T10:47:10.520Z,29.88
2023-04-22T10:48:43.686Z,28.46
2023-04-22T10:50:28.502Z,29.44
2023-04-22T10:52:13.217Z,28.87
2023-04-22T10:53:58.552Z,29.61
2023-04-22T10:55:49.461Z,29.74
2023-04-22T10:57:37.594Z,30.40
2023-04-22T10:59:13.903Z,28.73
2023-04-22T11:00:59.820Z,29.01
2023-04-22T11:02:47.077Z,29.76
2023-04-22T11:04:41.560Z,29.75
2023-04-22T11:06:35.716Z,29.66
2023-04-22T11:08:20.330Z,30.05
2023-04-22T11:10:05.485Z,29.22
2023-04-22T11:11:50.160Z,28.69
2023-04-22T11:13:14.077Z,28.99
2023-04-22T11:14:56.211Z,26.77
2023-04-22T11:16:29.903Z,27.54
2023-04-22T11:18:15.135Z,27.95
2023-04-22T11:19:59.771Z,26.91
2023-04-22T11:21:41.991Z,26.99
2023-04-22T11:23:23.387Z,28.14
2023-04-22T11:25:08.222Z,28.48
2023-04-22T11:26:43.712Z,28.77
2023-04-22T11:28:37.545Z,28.36
2023-04-22T11:30:22.703Z,28.14
2023-04-22T11:31:57.899Z,28.68
2023-04-22T11:33:50.247Z,28.55
2023-04-22T11:35:31.330Z,27.30
2023-04-22T11:37:12.228Z,26.20
2023-04-22T11:38:45.297Z,24.96
2023-04-22T11:40:40.044Z,26.12
2023-04-22T11:42:25.542Z,25.79
2023-04-22T11:44:00.919Z,26.12
2023-04-22T11:45:36.071Z,26.43
2023-04-22T11:47:30.570Z,26.43
2023-04-22T11:49:03.281Z,26.64
2023-04-22T11:50:57.641Z,26.35
2023-04-22T11:52:43.557Z,25.87
2023-04-22T11:54:38.595Z,25.75
2023-04-22T11:56:14.275Z,25.35
2023-04-22T11:57:47.602Z,26.24
2023-04-22T11:59:23.748Z,26.25
2023-04-22T12:01:04.161Z,26.24
2023-04-22T12:02:58.850Z,25.04
2023-04-22T12:04:32.867Z,25.01
2023-04-22T12:06:17.232Z,24.70
2023-04-22T12:08:02.560Z,25.10
2023-04-22T12:09:55.777Z,24.38
2023-04-22T12:11:50.559Z,23.21
2023-04-22T12:13:33.565Z,22.26
2023-04-22T12:15:18.917Z,23.43
2023-04-22T12:17:03.791Z,23.36
2023-04-22T12:18:57.322Z,22.88
2023-04-22T12:20:52.561Z,23.44
2023-04-22T12:22:26.309Z,23.51
2023-04-22T12:23:50.269Z,23.64
2023-04-22T12:25:45.562Z,23.74
2023-04-22T12:27:11.858Z,22.77
2023-04-22T12:28:56.729Z,23.26
2023-04-22T12:30:40.988Z,22.96
2023-04-22T12:32:35.559Z,23.64
2023-04-22T12:34:09.021Z,23.45
2023-04-22T12:35:55.413Z,22.76
2023-04-22T12:37:51.230Z,24.00
2023-04-22T12:39:37.850Z,24.17
2023-04-22T12:41:23.002Z,24.57
2023-04-22T12:43:07.895Z,22.68
2023-04-22T12:45:01.102Z,23.14
2023-04-22T12:46:50.728Z,23.22
2023-04-22T12:48:45.604Z,22.13
2023-04-22T12:50:40.603Z,20.99
2023-04-22T12:52:35.588Z,22.95
2023-04-22T12:54:20.368Z,22.92
2023-04-22T12:56:05.432Z,21.02
2023-04-22T12:57:59.593Z,22.26
2023-04-22T12:59:54.580Z,22.48
2023-04-22T13:01:35.971Z,22.40
2023-04-22T13:03:09.348Z,22.51
2023-04-22T13:05:01.995Z,22.09
2023-04-22T13:06:46.569Z,22.26
2023-04-22T13:08:40.586Z,20.78
2023-04-22T13:10:35.698Z,21.40
2023-04-22T13:12:04.866Z,20.48
2023-04-22T13:13:58.519Z,20.54
2023-04-22T13:15:54.341Z,20.99
2023-04-22T13:17:39.726Z,20.69
2023-04-22T13:19:30.579Z,20.79
2023-04-22T13:21:20.502Z,19.53
2023-04-22T13:23:05.308Z,19.40
2023-04-22T13:24:59.584Z,21.64
2023-04-22T13:26:54.576Z,19.66
2023-04-22T13:28:44.107Z,20.31
2023-04-22T13:30:19.981Z,19.72
2023-04-22T13:32:04.912Z,19.76
2023-04-22T13:33:59.586Z,20.32
2023-04-22T13:35:54.606Z,19.75
2023-04-22T13:37:39.861Z,19.55
2023-04-22T13:39:34.602Z,20.92
2023-04-22T13:41:19.004Z,19.43
2023-04-22T13:43:04.391Z,19.34
2023-04-22T13:44:43.067Z,20.13
2023-04-22T13:46:37.589Z,19.90
2023-04-22T13:48:23.040Z,19.14
2023-04-22T13:50:07.960Z,19.76
2023-04-22T13:51:41.481Z,20.28
2023-04-22T13:53:15.758Z,20.77
2023-04-22T13:54:56.371Z,20.44
2023-04-22T13:56:29.845Z,20.81
2023-04-22T13:58:15.086Z,20.68
2023-04-22T13:59:59.596Z,20.76
2023-04-22T14:03:55.617Z,19.56
2023-04-22T14:07:54.650Z,19.84
2023-04-22T14:09:42.619Z,19.83
2023-04-22T14:11:16.288Z,20.30
2023-04-22T14:13:01.100Z,20.04
2023-04-22T14:14:35.030Z,20.13
2023-04-22T14:16:28.260Z,21.11
2023-04-22T14:18:12.999Z,20.41
2023-04-22T14:19:58.177Z,20.38
2023-04-22T14:21:31.955Z,20.51
2023-04-22T14:23:05.109Z,20.68
2023-04-22T14:24:52.130Z,20.11
2023-04-22T14:26:46.641Z,19.96
2023-04-22T14:28:40.272Z,19.25
2023-04-22T14:30:25.895Z,19.35
2023-04-22T14:31:59.455Z,18.89
2023-04-22T14:33:54.631Z,18.93
2023-04-22T14:35:42.166Z,19.18
2023-04-22T14:37:15.819Z,19.01
2023-04-22T14:38:49.190Z,18.88
2023-04-22T14:40:19.987Z,19.14
2023-04-22T14:42:00.154Z,19.08
2023-04-22T14:43:36.032Z,19.41
2023-04-22T14:45:11.721Z,19.26
2023-04-22T14:46:45.305Z,19.62
2023-04-22T14:48:38.925Z,19.63
2023-04-22T14:50:20.248Z,19.08
2023-04-22T14:52:05.073Z,18.53
2023-04-22T14:53:50.015Z,18.76
2023-04-22T14:55:41.404Z,19.11
2023-04-22T14:57:26.464Z,19.97
2023-04-22T14:59:06.661Z,19.67
2023-04-22T15:00:40.263Z,20.24
2023-04-22T15:02:15.500Z,19.39
2023-04-22T15:03:56.026Z,20.20
2023-04-22T15:05:42.229Z,19.54
2023-04-22T15:07:15.999Z,19.77
2023-04-22T15:09:00.354Z,19.09
2023-04-22T15:10:37.230Z,18.92
2023-04-22T15:12:10.873Z,18.12
2023-04-22T15:13:44.473Z,17.60
2023-04-22T15:15:17.829Z,17.86
2023-04-22T15:16:44.355Z,19.09
2023-04-22T15:18:29.580Z,19.18
2023-04-22T15:20:07.205Z,18.51
2023-04-22T15:22:00.952Z,18.43
2023-04-22T15:23:46.507Z,18.98
2023-04-22T15:25:33.293Z,18.54
2023-04-22T15:27:25.388Z,17.99
2023-04-22T15:28:58.730Z,18.06
2023-04-22T15:30:53.701Z,18.48
2023-04-22T15:32:39.537Z,19.45
2023-04-22T15:34:34.643Z,18.58
2023-04-22T15:36:19.355Z,18.25
2023-04-22T15:38:04.686Z,18.82
2023-04-22T15:39:58.034Z,18.35
2023-04-22T15:41:48.359Z,18.35
2023-04-22T15:43:35.091Z,18.02
2023-04-22T15:45:08.310Z,18.42
2023-04-22T15:46:53.895Z,18.46
2023-04-22T15:48:23.279Z,17.78
2023-04-22T15:49:58.442Z,17.73
2023-04-22T15:51:32.571Z,18.01
2023-04-22T15:53:05.661Z,17.32
2023-04-22T15:54:50.656Z,18.00
2023-04-22T15:56:39.219Z,18.25
2023-04-22T15:58:24.597Z,17.96
2023-04-22T16:00:10.177Z,18.21
2023-04-22T16:01:46.151Z,18.27
2023-04-22T16:03:36.670Z,18.13
2023-04-22T16:05:30.097Z,18.60
2023-04-22T16:07:15.085Z,18.07
2023-04-22T16:08:55.835Z,18.24
2023-04-22T16:10:29.468Z,17.96
2023-04-22T16:12:02.403Z,18.09
2023-04-22T16:13:46.795Z,18.12
2023-04-22T16:15:41.646Z,18.34
2023-04-22T16:17:27.336Z,19.20
2023-04-22T16:19:00.608Z,18.60
2023-04-22T16:20:30.142Z,19.43
2023-04-22T16:22:05.597Z,20.28
2023-04-22T16:23:50.350Z,21.05
2023-04-22T16:25:31.446Z,21.05
2023-04-22T16:27:24.236Z,21.44
2023-04-22T16:29:09.052Z,21.92
2023-04-22T16:33:03.774Z,22.70
2023-04-22T16:34:35.818Z,22.86
2023-04-22T16:36:20.618Z,23.40
2023-04-22T16:37:54.220Z,24.17
2023-04-22T16:39:30.131Z,24.31
2023-04-22T16:41:15.010Z,24.60
2023-04-22T16:43:00.541Z,25.24
2023-04-22T16:44:55.668Z,25.55
2023-04-22T16:46:47.221Z,25.71
2023-04-22T16:48:40.996Z,26.36
2023-04-22T16:50:26.403Z,26.06
2023-04-22T16:52:06.953Z,26.65
2023-04-22T16:54:01.672Z,26.89
2023-04-22T16:57:57.916Z,28.02
2023-04-22T16:59:46.254Z,28.53
2023-04-22T17:01:31.306Z,28.18
2023-04-22T17:03:07.597Z,28.65
2023-04-22T17:04:41.527Z,29.32
2023-04-22T17:06:15.301Z,29.31
2023-04-22T17:07:48.425Z,29.34
2023-04-22T17:09:15.449Z,29.54
2023-04-22T17:10:53.203Z,29.62
2023-04-22T17:12:35.351Z,30.46
2023-04-22T17:14:29.671Z,30.74
2023-04-22T17:16:09.895Z,30.99
2023-04-22T17:17:58.042Z,31.16
2023-04-22T17:19:44.527Z,31.78
2023-04-22T17:21:29.382Z,31.86
2023-04-22T17:23:22.906Z,32.50
2023-04-22T17:24:49.141Z,32.49
2023-04-22T17:26:28.974Z,32.96
2023-04-22T17:28:13.999Z,32.92
2023-04-22T17:29:55.829Z,33.51
2023-04-22T17:31:50.787Z,33.42
2023-04-22T17:33:26.909Z,33.88
2023-04-22T17:35:07.940Z,34.04
2023-04-22T17:37:02.694Z,34.73
2023-04-22T17:38:45.664Z,35.11
2023-04-22T17:40:26.412Z,35.01
2023-04-22T17:41:59.713Z,35.35
2023-04-22T17:43:51.221Z,35.65
2023-04-22T17:45:27.278Z,36.09
2023-04-22T17:47:12.265Z,36.38
2023-04-22T17:48:55.692Z,36.62
2023-04-22T17:50:25.569Z,36.94
2023-04-22T17:52:05.960Z,37.67
2023-04-22T17:53:41.769Z,38.02
2023-04-22T17:55:17.706Z,38.41
2023-04-22T17:56:51.199Z,38.77
2023-04-22T17:58:35.567Z,39.57
2023-04-22T18:00:20.669Z,39.25
2023-04-22T18:01:54.321Z,39.46
2023-04-22T18:03:28.276Z,39.71
2023-04-22T18:05:01.712Z,39.64
2023-04-22T18:06:35.584Z,39.60
2023-04-22T18:08:25.700Z,40.13
2023-04-22T18:09:49.582Z,40.22
2023-04-22T18:11:25.787Z,40.35
2023-04-22T18:13:10.413Z,40.67
2023-04-22T18:14:51.395Z,40.98
2023-04-22T18:16:38.973Z,41.17
2023-04-22T18:18:23.682Z,41.36
2023-04-22T18:20:09.769Z,41.66
2023-04-22T18:21:59.499Z,41.83
2023-04-22T18:23:45.700Z,41.84
2023-04-22T18:25:19.256Z,42.01
2023-04-22T18:27:01.701Z,42.63
2023-04-22T18:28:55.313Z,42.55
2023-04-22T18:30:49.679Z,42.85
2023-04-22T18:32:35.002Z,42.65
2023-04-22T18:34:15.695Z,42.56
2023-04-22T18:36:00.828Z,42.93
2023-04-22T18:37:36.458Z,42.83
2023-04-22T18:39:05.417Z,43.12
2023-04-22T18:40:49.229Z,43.19
2023-04-22T18:42:10.782Z,43.50
2023-04-22T18:43:51.618Z,43.68
2023-04-22T18:45:16.780Z,43.26
2023-04-22T18:46:52.230Z,43.80
2023-04-22T18:48:45.836Z,43.47
2023-04-22T18:50:09.869Z,43.60
2023-04-22T18:51:55.978Z,43.69
2023-04-22T18:53:42.577Z,43.77
2023-04-22T18:55:28.270Z,44.00
2023-04-22T18:57:13.939Z,43.88
2023-04-22T18:58:45.035Z,43.95
2023-04-22T19:00:26.875Z,43.85
2023-04-22T19:02:02.070Z,43.92
2023-04-22T19:03:38.205Z,44.08
2023-04-22T19:05:24.200Z,44.29
2023-04-22T19:07:09.565Z,44.67
2023-04-22T19:08:54.934Z,44.70
2023-04-22T19:10:40.079Z,44.58
2023-04-22T19:12:26.314Z,44.66
2023-04-22T19:13:55.161Z,44.68
2023-04-22T19:15:29.214Z,44.62
2023-04-22T19:17:02.676Z,44.81
2023-04-22T19:18:24.768Z,44.72
2023-04-22T19:19:53.672Z,44.86
2023-04-22T19:21:48.724Z,44.86
2023-04-22T19:23:33.562Z,44.65
2023-04-22T19:25:18.407Z,44.82
2023-04-22T19:27:03.762Z,44.88
2023-04-22T19:28:56.952Z,44.67
2023-04-22T19:30:31.752Z,44.89
2023-04-22T19:31:58.827Z,44.67
2023-04-22T19:33:40.162Z,44.68
2023-04-22T19:35:15.656Z,44.92
2023-04-22T19:36:50.341Z,44.92
2023-04-22T19:38:24.247Z,44.95
2023-04-22T19:39:57.587Z,44.99
2023-04-22T19:41:33.502Z,44.99
2023-04-22T19:43:04.214Z,45.16
2023-04-22T19:44:49.466Z,45.13
2023-04-22T19:46:21.302Z,45.15
2023-04-22T19:47:54.254Z,45.09
2023-04-22T19:49:43.765Z,45.08
2023-04-22T19:51:17.613Z,44.99
2023-04-22T19:52:51.055Z,45.11
2023-04-22T19:54:45.919Z,45.11
2023-04-22T19:56:21.127Z,45.13
2023-04-22T19:58:05.967Z,45.20
2023-04-22T20:01:46.710Z,45.16
2023-04-22T20:03:26.316Z,45.40
2023-04-22T20:05:17.433Z,45.79
2023-04-22T20:07:02.833Z,45.64
2023-04-22T20:08:41.770Z,46.00
2023-04-22T20:10:29.025Z,46.00
2023-04-22T20:12:02.937Z,46.30
2023-04-22T20:13:39.678Z,46.64
2023-04-22T20:15:21.614Z,46.59
2023-04-22T20:16:47.685Z,46.48
2023-04-22T20:18:12.176Z,46.79
2023-04-22T20:19:56.887Z,46.83
2023-04-22T20:21:28.944Z,46.88
2023-04-22T20:23:22.077Z,46.90
2023-04-22T20:24:53.540Z,46.86
2023-04-22T20:26:17.482Z,46.96
2023-04-22T20:27:48.685Z,47.01
2023-04-22T20:29:12.717Z,47.01
2023-04-22T20:30:46.654Z,47.08
2023-04-22T20:32:11.379Z,47.08
2023-04-22T20:33:47.427Z,47.03
2023-04-22T20:35:23.297Z,47.32
2023-04-22T20:36:56.319Z,47.27
2023-04-22T20:38:26.552Z,47.07
2023-04-22T20:40:04.294Z,46.98
2023-04-22T20:41:36.008Z,46.98
2023-04-22T20:43:29.456Z,47.07
2023-04-22T20:45:05.244Z,47.04
2023-04-22T20:46:40.098Z,46.84
2023-04-22T20:48:33.412Z,47.19
2023-04-22T20:50:08.057Z,47.10
2023-04-22T20:51:41.770Z,47.44
2023-04-22T20:53:25.297Z,47.30
2023-04-22T20:55:10.442Z,47.43
2023-04-22T20:56:55.249Z,47.07
2023-04-22T20:58:28.835Z,47.58
2023-04-22T20:59:55.422Z,47.17
2023-04-22T21:01:30.493Z,47.21
2023-04-22T21:02:59.640Z,47.22
2023-04-22T21:04:26.438Z,47.29
2023-04-22T21:05:48.133Z,47.28
2023-04-22T21:07:41.775Z,47.18
2023-04-22T21:09:22.801Z,47.14
2023-04-22T21:10:59.426Z,47.38
2023-04-22T21:12:44.970Z,47.13
2023-04-22T21:14:39.766Z,47.25
2023-04-22T21:16:29.083Z,47.39
2023-04-22T21:18:23.561Z,46.98
2023-04-22T21:20:17.313Z,47.16
2023-04-22T21:22:02.337Z,47.16
2023-04-22T21:23:36.304Z,46.85
2023-04-22T21:25:21.226Z,46.30
2023-04-22T21:27:10.790Z,46.64
2023-04-22T21:28:45.501Z,46.73
2023-04-22T21:30:32.311Z,46.79
2023-04-22T21:32:09.431Z,46.82
2023-04-22T21:33:46.226Z,46.63
2023-04-22T21:35:33.692Z,46.85
2023-04-22T21:37:18.926Z,46.51
2023-04-22T21:38:42.889Z,46.46
2023-04-22T21:40:30.023Z,46.65
2023-04-22T21:42:14.944Z,46.29
2023-04-22T21:43:55.798Z,46.51
2023-04-22T21:45:40.856Z,46.72
2023-04-22T21:47:16.619Z,46.70